KRGA

Central Kentucky Regional Airport

Richmond, Kentucky, USA
METAR KRGA 172055Z AUTO 28010G17KT 10SM CLR 17/05 A3027 RMK AO2
Observed Flight Rules
Oct-17 @ 20:55 UTC (14 minutes ago) Visual Flight Rules
Wind Visibility Clouds
280° at 10 knots
 Gusting to 17 knots
10 miles
  • Clear skies
Temperatures Readings
Current 17°C / 63°F
Dewpoint 5°C / 41°F
Humidity 45%
Altimeter 30.27" Hg
Pressure 1025 hPa
Elevation 305
METAR KRGA 172055Z AUTO 28010G17KT 10SM CLR 17/05 A3027 RMK AO2
Observed Flight Rules
Oct-17 @ 20:55 UTC
(14 minutes ago)
VFR
Wind Visibility
280° at 10 knots
 Gusting to 17 knots
10 miles
Clouds
  • Clear skies
Temperature Dewpoint
17°C / 63°F 5°C / 41°F
Humidity Altimeter Pressure
45% 30.27" Hg 1025 hPa